createdAt,value
2023-03-06T00:03:38.062Z,5.90
2023-03-06T00:08:39.511Z,5.80
2023-03-06T00:13:41.032Z,6.32
2023-03-06T00:18:43.996Z,6.47
2023-03-06T00:23:45.456Z,7.15
2023-03-06T00:28:46.903Z,7.03
2023-03-06T00:33:49.425Z,7.45
2023-03-06T00:38:51.799Z,8.27
2023-03-06T00:43:53.300Z,7.75
2023-03-06T00:48:54.780Z,6.95
2023-03-06T00:53:56.245Z,7.10
2023-03-06T00:58:59.076Z,7.38
2023-03-06T01:04:00.514Z,7.65
2023-03-06T01:09:02.289Z,8.43
2023-03-06T01:14:04.122Z,8.98
2023-03-06T01:19:05.549Z,8.15
2023-03-06T01:24:07.293Z,7.82
2023-03-06T01:29:08.847Z,8.70
2023-03-06T01:34:10.426Z,8.85
2023-03-06T01:39:12.278Z,8.52
2023-03-06T01:44:13.854Z,9.35
2023-03-06T01:49:30.398Z,9.35
2023-03-06T01:54:46.458Z,9.35
2023-03-06T01:59:52.919Z,8.75
2023-03-06T02:04:54.454Z,8.20
2023-03-06T02:09:55.987Z,8.73
2023-03-06T02:14:59.752Z,8.30
2023-03-06T02:20:12.120Z,9.27
2023-03-06T02:25:45.887Z,8.02
2023-03-06T02:30:50.923Z,9.38
2023-03-06T02:36:00.370Z,9.68
2023-03-06T02:41:06.817Z,9.02
2023-03-06T02:46:08.528Z,9.55
2023-03-06T02:51:14.289Z,8.75
2023-03-06T02:56:16.171Z,8.82
2023-03-06T03:01:18.331Z,10.02
2023-03-06T03:06:19.858Z,9.30
2023-03-06T03:11:21.700Z,10.32
2023-03-06T03:16:23.285Z,10.60
2023-03-06T03:21:24.788Z,10.98
2023-03-06T03:26:28.750Z,11.48
2023-03-06T03:31:42.181Z,10.13
2023-03-06T03:36:44.660Z,9.93
2023-03-06T03:41:47.467Z,8.60
2023-03-06T03:46:50.455Z,10.55
2023-03-06T03:51:55.781Z,12.85
2023-03-06T03:56:59.933Z,13.45
2023-03-06T04:02:06.822Z,13.05
2023-03-06T04:07:15.165Z,14.43
2023-03-06T04:12:16.775Z,15.15
2023-03-06T04:17:18.403Z,15.75
2023-03-06T04:22:20.019Z,13.35
2023-03-06T04:27:21.755Z,13.77
2023-03-06T04:32:24.033Z,13.30
2023-03-06T04:37:26.411Z,13.23
2023-03-06T04:42:29.287Z,14.02
2023-03-06T04:47:31.223Z,11.77
2023-03-06T04:52:32.800Z,12.27
2023-03-06T04:57:38.879Z,12.48
2023-03-06T05:02:42.539Z,12.20
2023-03-06T05:07:45.003Z,12.65
2023-03-06T05:12:46.579Z,12.93
2023-03-06T05:17:48.027Z,10.88
2023-03-06T05:22:49.639Z,11.25
2023-03-06T05:27:51.078Z,11.35
2023-03-06T05:32:52.579Z,9.93
2023-03-06T05:37:54.038Z,10.20
2023-03-06T05:42:55.876Z,10.18
2023-03-06T05:47:57.285Z,9.70
2023-03-06T05:52:58.850Z,9.68
2023-03-06T05:58:00.322Z,10.32
2023-03-06T06:03:02.221Z,9.95
2023-03-06T06:08:03.687Z,10.70
2023-03-06T06:13:05.694Z,10.68
2023-03-06T06:18:07.972Z,11.60
2023-03-06T06:23:12.172Z,11.18
2023-03-06T06:28:13.638Z,11.65
2023-03-06T06:33:15.136Z,11.80
2023-03-06T06:38:16.869Z,10.38
2023-03-06T06:43:18.314Z,10.95
2023-03-06T06:48:19.929Z,11.27
2023-03-06T06:53:21.383Z,9.85
2023-03-06T06:58:22.812Z,9.82
2023-03-06T07:03:24.224Z,10.20
2023-03-06T07:08:25.863Z,10.68
2023-03-06T07:13:27.399Z,11.98
2023-03-06T07:18:29.671Z,13.93
2023-03-06T07:23:31.303Z,13.50
2023-03-06T07:28:43.077Z,13.55
2023-03-06T07:33:54.392Z,16.45
2023-03-06T07:38:55.817Z,17.20
2023-03-06T07:43:57.276Z,17.27
2023-03-06T07:48:58.902Z,15.68
2023-03-06T07:54:00.356Z,16.63
2023-03-06T07:59:02.539Z,17.50
2023-03-06T08:04:04.340Z,17.63
2023-03-06T08:09:05.962Z,17.48
2023-03-06T08:14:07.377Z,16.45
2023-03-06T08:19:09.090Z,15.48
2023-03-06T08:24:10.608Z,16.42
2023-03-06T08:29:12.398Z,14.15
2023-03-06T08:34:19.867Z,17.17
2023-03-06T08:39:23.491Z,16.13
2023-03-06T08:44:24.938Z,16.50
2023-03-06T08:49:26.396Z,14.65
2023-03-06T08:54:27.840Z,16.35
2023-03-06T08:59:29.428Z,14.95
2023-03-06T09:04:31.578Z,14.88
2023-03-06T09:09:33.026Z,14.90
2023-03-06T09:14:34.495Z,14.57
2023-03-06T09:19:35.916Z,14.63
2023-03-06T09:24:37.398Z,13.68
2023-03-06T09:29:38.845Z,11.93
2023-03-06T09:34:40.297Z,12.57
2023-03-06T09:39:41.718Z,10.95
2023-03-06T09:44:47.951Z,10.85
2023-03-06T09:50:00.580Z,9.50
2023-03-06T09:55:40.895Z,11.20
2023-03-06T10:06:05.299Z,11.15
2023-03-06T10:11:10.495Z,12.20
2023-03-06T10:16:28.547Z,13.95
2023-03-06T10:21:37.484Z,13.95
2023-03-06T10:26:55.115Z,11.23
2023-03-06T10:32:09.247Z,10.82
2023-03-06T10:37:19.831Z,11.63
2023-03-06T10:42:24.948Z,12.07
2023-03-06T10:47:29.950Z,12.43
2023-03-06T10:52:34.329Z,11.80
2023-03-06T10:57:35.832Z,12.15
2023-03-06T11:02:40.861Z,11.40
2023-03-06T11:07:57.014Z,11.95
2023-03-06T11:13:18.996Z,12.48
2023-03-06T11:18:41.233Z,11.85
2023-03-06T11:23:47.316Z,11.52
2023-03-06T11:28:57.825Z,11.75
2023-03-06T11:34:08.603Z,10.90
2023-03-06T11:39:19.051Z,11.98
2023-03-06T11:44:23.075Z,12.48
2023-03-06T11:49:32.179Z,10.88
2023-03-06T11:54:33.697Z,10.43
2023-03-06T12:00:06.963Z,10.80
2023-03-06T12:05:24.911Z,11.20
2023-03-06T12:10:35.185Z,11.30
2023-03-06T12:16:00.964Z,10.43
2023-03-06T12:21:27.674Z,10.07
2023-03-06T12:26:39.185Z,9.73
2023-03-06T12:31:49.778Z,8.98
2023-03-06T12:37:08.285Z,10.07
2023-03-06T12:42:23.885Z,9.00
2023-03-06T12:47:27.895Z,8.25
2023-03-06T12:52:31.948Z,7.35
2023-03-06T12:57:33.560Z,7.80
2023-03-06T13:03:16.201Z,8.82
2023-03-06T13:08:52.699Z,8.43
2023-03-06T13:13:54.849Z,9.70
2023-03-06T13:19:02.635Z,10.68
2023-03-06T13:24:05.736Z,8.70
2023-03-06T13:29:38.275Z,8.52
2023-03-06T13:34:41.426Z,8.75
2023-03-06T13:39:54.980Z,9.13
2023-03-06T13:45:05.561Z,9.25
2023-03-06T13:50:31.066Z,10.18
2023-03-06T13:55:47.283Z,9.70
2023-03-06T14:01:19.044Z,10.90
2023-03-06T14:06:42.335Z,10.32
2023-03-06T14:11:51.837Z,10.43
2023-03-06T14:21:57.269Z,11.35
2023-03-06T14:26:58.779Z,11.20
2023-03-06T14:32:01.959Z,10.73
2023-03-06T14:37:07.538Z,11.15
2023-03-06T14:42:25.424Z,10.55
2023-03-06T14:47:33.486Z,10.90
2023-03-06T14:52:35.848Z,11.52
2023-03-06T14:57:37.864Z,10.52
2023-03-06T15:02:39.545Z,10.40
2023-03-06T15:07:42.686Z,10.93
2023-03-06T15:12:44.204Z,10.15
2023-03-06T15:17:47.571Z,10.30
2023-03-06T15:22:50.703Z,9.32
2023-03-06T15:27:56.364Z,8.73
2023-03-06T15:33:17.948Z,9.00
2023-03-06T15:38:41.843Z,9.50
2023-03-06T15:43:43.409Z,7.65
2023-03-06T15:49:03.144Z,7.80
2023-03-06T15:54:12.216Z,7.70
2023-03-06T15:59:20.241Z,8.20
2023-03-06T16:04:21.945Z,8.45
2023-03-06T16:09:23.695Z,7.35
2023-03-06T16:14:25.396Z,7.95
2023-03-06T16:19:27.901Z,7.78
2023-03-06T16:24:29.529Z,7.45
2023-03-06T16:29:31.196Z,8.20
2023-03-06T16:34:32.628Z,8.73
2023-03-06T16:39:34.106Z,8.85
2023-03-06T16:44:35.545Z,9.02
2023-03-06T16:49:37.085Z,9.65
2023-03-06T16:54:38.527Z,8.68
2023-03-06T16:59:40.017Z,8.25
2023-03-06T17:04:41.453Z,8.63
2023-03-06T17:09:43.301Z,9.35
2023-03-06T17:14:45.356Z,9.18
2023-03-06T17:19:47.980Z,9.68
2023-03-06T17:24:51.948Z,8.82
2023-03-06T17:29:55.860Z,8.73
2023-03-06T17:34:57.315Z,9.70
2023-03-06T17:39:58.771Z,9.38
2023-03-06T17:45:00.270Z,8.73
2023-03-06T17:50:01.886Z,11.25
2023-03-06T17:55:03.576Z,11.13
2023-03-06T18:00:06.365Z,11.00
2023-03-06T18:05:13.643Z,9.43
2023-03-06T18:10:15.395Z,9.57
2023-03-06T18:15:17.156Z,8.63
2023-03-06T18:20:18.594Z,11.48
2023-03-06T18:25:20.178Z,11.13
2023-03-06T18:30:21.728Z,10.65
2023-03-06T18:35:23.211Z,10.57
2023-03-06T18:40:25.021Z,9.88
2023-03-06T18:45:26.547Z,9.93
2023-03-06T18:50:28.033Z,9.50
2023-03-06T18:55:29.457Z,9.15
2023-03-06T19:00:30.990Z,10.25
2023-03-06T19:05:32.411Z,10.07
2023-03-06T19:10:38.086Z,10.73
2023-03-06T19:15:48.222Z,10.48
2023-03-06T19:20:49.944Z,9.18
2023-03-06T19:25:59.135Z,9.60
2023-03-06T19:31:09.442Z,10.32
2023-03-06T19:36:13.146Z,8.85
2023-03-06T19:41:15.350Z,8.73
2023-03-06T19:46:16.961Z,9.40
2023-03-06T19:51:18.426Z,8.45
2023-03-06T19:56:22.762Z,9.75
2023-03-06T20:01:26.706Z,8.43
2023-03-06T20:06:31.449Z,9.43
2023-03-06T20:11:33.500Z,9.30
2023-03-06T20:16:35.700Z,8.27
2023-03-06T20:21:38.357Z,10.68
2023-03-06T20:26:39.812Z,10.15
2023-03-06T20:31:41.714Z,9.43
2023-03-06T20:36:43.189Z,9.43
2023-03-06T20:41:46.688Z,10.02
2023-03-06T20:46:48.675Z,10.18
2023-03-06T20:51:50.307Z,10.80
2023-03-06T20:56:51.841Z,10.75
2023-03-06T21:01:53.321Z,11.18
2023-03-06T21:06:54.806Z,11.30
2023-03-06T21:11:56.640Z,11.05
2023-03-06T21:16:58.069Z,10.85
2023-03-06T21:21:59.554Z,10.80
2023-03-06T21:27:01.099Z,10.18
2023-03-06T21:32:02.581Z,10.93
2023-03-06T21:37:04.166Z,10.52
2023-03-06T21:42:05.758Z,10.40
2023-03-06T21:47:07.257Z,11.80
2023-03-06T21:52:08.791Z,11.05
2023-03-06T21:57:10.247Z,10.63
2023-03-06T22:02:11.679Z,11.65
2023-03-06T22:07:13.114Z,10.70
2023-03-06T22:12:14.531Z,9.73
2023-03-06T22:17:15.987Z,7.95
2023-03-06T22:22:17.434Z,9.38
2023-03-06T22:27:18.950Z,9.50
2023-03-06T22:32:20.546Z,8.35
2023-03-06T22:37:22.112Z,8.68
2023-03-06T22:42:23.554Z,8.52
2023-03-06T22:47:25.014Z,7.55
2023-03-06T22:52:26.429Z,8.45
2023-03-06T22:57:27.911Z,7.25
2023-03-06T23:02:34.214Z,7.03
2023-03-06T23:07:35.676Z,6.70
2023-03-06T23:12:37.579Z,6.65
2023-03-06T23:17:57.633Z,6.32
2023-03-06T23:23:17.833Z,6.05
2023-03-06T23:28:19.280Z,6.88
2023-03-06T23:33:20.839Z,6.60
2023-03-06T23:38:22.302Z,6.72
2023-03-06T23:43:23.803Z,7.00
2023-03-06T23:48:25.521Z,6.57
2023-03-06T23:53:26.976Z,5.80
2023-03-06T23:58:28.436Z,7.22
